Latest Weather Observations for Larapuna (Eddystone Point)

IDT60801

Issued at 7:32 am EST Saturday 18 August 2018 (issued every 10 minutes, with the page automatically refreshed every 10 minutes)

About weather observations | Map of weather stations | Latest weather observations for TAS | Other Formats
Station Details ID: 092045 Name: LARAPUNA (EDDYSTONE POINT) Lat: -40.99 Lon: 148.35 Height: 19.7 m
Data from the previous 72 hours. | See also: Recent months at Larapuna (Eddystone Point)
Date/Time
EST
Temp
°C
App
Temp
°C
Dew
Point
°C
Rel
Hum
%
Delta-T
°C
Wind Press
QNH
hPa
Press
MSL
hPa
Rain since
9am
mm
Dir  Spd
km/h
Gust
km/h
Spd
kts
Gust
kts
18/07:30am 8.6 3.3 6.6 87 0.9 WNW 24 39 13 21 1001.1 1001.1 2.2
18/07:00am 8.6 3.7 6.9 89 0.8 WNW 22 33 12 18 1000.7 1000.7 2.2
18/06:30am 8.9 2.9 7.2 89 0.8 WNW 28 39 15 21 1000.3 1000.3 2.2
18/06:00am 9.2 3.3 7.6 90 0.8 NW 28 41 15 22 999.7 999.7 2.2
18/05:30am 9.0 2.7 7.5 90 0.7 NW 30 52 16 28 999.7 999.7 2.0
18/05:22am 9.1 2.2 7.4 89 0.8 NW 33 52 18 28 999.7 999.7 2.0
18/05:00am 9.3 2.1 7.6 89 0.8 NW 35 48 19 26 999.7 999.7 1.8
18/04:30am 9.3 1.0 7.6 89 0.8 NW 41 56 22 30 999.4 999.4 1.8
18/04:00am 10.2 -0.4 8.3 88 0.9 NW 54 72 29 39 999.3 999.3 1.6
18/03:33am 10.7 0.0 7.9 83 1.4 NNW 54 72 29 39 999.1 999.1 1.2
18/03:30am 10.7 0.4 8.1 84 1.3 NNW 52 69 28 37 999.2 999.2 1.0
18/03:01am 11.2 0.9 8.1 81 1.5 NNW 52 70 28 38 999.4 999.4 0.6
18/03:00am 11.1 0.4 8.0 81 1.5 NNW 54 70 29 38 999.4 999.4 0.6
18/02:35am 10.9 -0.3 7.6 80 1.6 NNW 56 74 30 40 999.9 999.9 0.4
18/02:30am 11.5 1.1 7.6 77 1.9 NNW 52 67 28 36 1000.1 1000.1 0.2
18/02:00am 12.0 1.4 6.9 71 2.5 NNW 52 67 28 36 1000.3 1000.3 0.2
18/01:30am 12.0 0.0 6.5 69 2.6 NNW 59 78 32 42 1000.7 1000.7 0.2
18/01:00am 11.9 0.5 6.6 70 2.5 NNW 56 74 30 40 1001.1 1001.1 0.2
18/12:57am 11.9 0.5 6.8 71 2.4 NNW 56 74 30 40 1001.2 1001.2 0.2
18/12:30am 11.9 0.6 7.2 73 2.3 NNW 56 72 30 39 1001.8 1001.8 0.2
18/12:00am 12.1 0.7 6.6 69 2.6 NNW 56 72 30 39 1002.3 1002.3 0.2
 
Date/Time
EST
Temp
°C
App
Temp
°C
Dew
Point
°C
Rel
Hum
%
Delta-T
°C
Wind Press
QNH
hPa
Press
MSL
hPa
Rain since
9am
mm
Dir  Spd
km/h
Gust
km/h
Spd
kts
Gust
kts
17/11:58pm 12.0 0.9 6.5 69 2.6 NNW 54 72 29 39 1002.3 1002.3 0.2
17/11:30pm 12.0 1.0 6.7 70 2.5 NNW 54 67 29 36 1002.8 1002.8 0.2
17/11:01pm 12.0 2.3 7.3 73 2.3 NNW 48 69 26 37 1003.4 1003.4 0.2
17/11:00pm 12.0 2.3 7.5 74 2.2 NNW 48 65 26 35 1003.4 1003.4 0.2
17/10:30pm 12.2 2.6 7.9 75 2.1 NNW 48 63 26 34 1003.9 1003.9 0.2
17/10:00pm 12.0 1.5 7.5 74 2.2 NNW 52 61 28 33 1004.3 1004.3 0.2
17/09:30pm 12.1 3.4 8.4 78 1.8 NNW 44 56 24 30 1004.6 1004.6 0.2
17/09:00pm 12.0 3.4 8.1 77 1.9 NNW 43 52 23 28 1004.8 1004.8 0.2
17/08:30pm 11.8 4.7 8.1 78 1.8 NNW 35 46 19 25 1005.1 1005.1 0.2
17/08:00pm 11.7 5.1 8.6 81 1.5 NNW 33 44 18 24 1005.5 1005.5 0.2
17/07:30pm 11.5 4.9 8.5 82 1.5 NNW 33 44 18 24 1005.8 1005.8 0.2
17/07:00pm 11.4 4.6 7.9 79 1.7 NNW 33 43 18 23 1006.1 1006.1 0.2
17/06:30pm 11.4 4.2 7.7 78 1.8 NNW 35 52 19 28 1006.2 1006.2 0.2
17/06:00pm 11.2 4.9 7.5 78 1.8 NNW 30 43 16 23 1006.4 1006.4 0.2
17/05:30pm 11.4 4.6 7.5 77 1.9 NW 33 46 18 25 1006.1 1006.1 0.2
17/05:00pm 11.8 4.6 7.7 76 2.0 NW 35 46 19 25 1006.1 1006.1 0.2
17/04:30pm 11.9 3.9 7.4 74 2.2 NW 39 52 21 28 1006.0 1006.0 0.2
17/04:06pm 11.9 5.0 7.2 73 2.3 NW 33 54 18 29 1006.0 1006.0 0.2
17/04:00pm 11.9 5.2 7.2 73 2.3 NW 32 44 17 24 1006.1 1006.1 0.2
17/03:32pm 12.4 3.3 6.9 69 2.6 NW 44 69 24 37 1006.1 1006.1 0.0
17/03:30pm 12.6 3.9 7.5 71 2.5 NW 43 57 23 31 1006.1 1006.1 0.0
17/03:09pm 12.3 3.4 6.8 69 2.6 NW 43 65 23 35 1006.0 1006.0 0.0
17/03:00pm 13.4 6.1 7.2 66 3.0 NW 35 50 19 27 1006.2 1006.2 0.0
17/02:52pm 12.7 6.4 7.4 70 2.6 WNW 30 48 16 26 1006.2 1006.2 0.0
17/02:30pm 11.6 6.2 7.9 78 1.8 WNW 26 39 14 21 1006.5 1006.5 0.0
17/02:00pm 12.1 3.9 6.4 68 2.7 WNW 39 59 21 32 1006.6 1006.6 0.0
17/01:36pm 13.4 5.5 6.0 61 3.5 WNW 37 56 20 30 1006.6 1006.6 0.0
17/01:30pm 13.8 5.8 5.9 59 3.8 WNW 37 50 20 27 1006.6 1006.6 0.0
17/01:00pm 13.7 5.8 6.1 60 3.6 NW 37 52 20 28 1007.0 1007.0 0.0
17/12:30pm 13.1 6.0 6.2 63 3.3 NW 33 52 18 28 1007.3 1007.3 0.0
17/12:15pm 12.5 5.7 6.8 68 2.7 WNW 32 50 17 27 1007.6 1007.6 0.0
17/12:00pm 12.7 5.9 7.0 68 2.8 WNW 32 46 17 25 1007.7 1007.7 0.0
17/11:36am 11.4 4.9 6.5 72 2.3 WNW 30 50 16 27 1008.2 1008.2 0.0
17/11:30am 11.7 4.9 6.8 72 2.3 WNW 32 46 17 25 1008.1 1008.1 0.0
17/11:00am 12.2 5.7 6.7 69 2.6 NW 30 41 16 22 1008.5 1008.5 0.0
17/10:30am 12.1 6.4 6.8 70 2.5 NW 26 39 14 21 1008.8 1008.8 0.0
17/10:16am 10.7 4.6 6.6 76 1.9 NW 28 46 15 25 1008.9 1008.9 0.0
17/10:00am 10.7 5.4 7.0 78 1.8 NW 24 33 13 18 1009.0 1009.0 0.0
17/09:30am 9.7 5.2 6.8 82 1.4 NW 20 28 11 15 1009.3 1009.3 0.0
17/09:00am 8.7 4.7 6.5 86 1.0 NW 17 22 9 12 1009.4 1009.4 0.0
17/08:30am 8.1 4.4 6.2 88 0.9 WNW 15 22 8 12 1009.5 1009.5 0.0
17/08:00am 7.2 3.3 5.3 88 0.8 NW 15 19 8 10 1009.5 1009.5 0.0
17/07:30am 6.8 2.8 5.0 88 0.8 NW 15 19 8 10 1009.4 1009.4 0.0
17/07:00am 6.4 1.4 4.4 87 0.9 WNW 20 24 11 13 1009.3 1009.3 0.0
17/06:30am 6.0 1.0 3.8 86 0.9 WNW 19 22 10 12 1009.0 1009.0 0.0
17/06:00am 6.2 1.7 4.0 86 0.9 WNW 17 20 9 11 1009.0 1009.0 0.0
17/05:30am 5.9 1.3 3.6 85 1.0 WNW 17 19 9 10 1008.8 1008.8 0.0
17/05:00am 6.1 1.9 3.8 85 1.0 WNW 15 20 8 11 1009.0 1009.0 0.0
17/04:30am 5.8 1.9 3.3 84 1.0 NW 13 19 7 10 1008.9 1008.9 0.0
17/04:00am 5.9 1.6 3.2 83 1.1 WNW 15 17 8 9 1009.0 1009.0 0.0
17/03:30am 5.6 0.8 2.8 82 1.2 WNW 17 20 9 11 1008.9 1008.9 0.0
17/03:00am 6.1 1.0 3.1 81 1.3 NW 19 24 10 13 1008.9 1008.9 0.0
17/02:30am 6.1 1.4 3.1 81 1.2 WNW 17 20 9 11 1008.9 1008.9 0.0
17/02:00am 6.4 3.2 2.9 78 1.5 NW 9 13 5 7 1009.4 1009.4 0.0
17/01:30am 6.4 2.4 2.7 77 1.5 WNW 13 17 7 9 1009.1 1009.1 0.0
17/01:00am 6.3 2.2 2.2 75 1.7 W 13 15 7 8 1009.1 1009.1 0.0
17/12:30am 6.6 2.9 2.3 74 1.8 W 11 17 6 9 1008.9 1008.9 0.0
17/12:00am 7.3 2.5 2.4 71 2.0 WNW 17 22 9 12 1009.0 1009.0 0.0
 
Date/Time
EST
Temp
°C
App
Temp
°C
Dew
Point
°C
Rel
Hum
%
Delta-T
°C
Wind Press
QNH
hPa
Press
MSL
hPa
Rain since
9am
mm
Dir  Spd
km/h
Gust
km/h
Spd
kts
Gust
kts
16/11:30pm 7.5 0.6 2.4 70 2.1 WNW 28 35 15 19 1008.7 1008.7 0.0
16/11:00pm 7.8 2.4 2.5 69 2.2 WNW 20 26 11 14 1008.5 1008.5 0.0
16/10:30pm 8.0 1.4 2.3 67 2.4 W 26 37 14 20 1008.6 1008.6 0.0
16/10:00pm 8.3 1.7 2.3 66 2.5 W 26 35 14 19 1008.4 1008.4 0.0
16/09:30pm 8.6 1.3 2.4 65 2.6 W 30 39 16 21 1008.2 1008.2 0.0
16/09:00pm 8.4 3.1 2.8 68 2.4 WNW 20 26 11 14 1008.0 1008.0 0.0
16/08:30pm 8.5 3.4 2.9 68 2.4 WNW 19 28 10 15 1007.8 1007.8 0.0
16/08:00pm 9.0 3.0 3.4 68 2.4 WNW 24 33 13 18 1007.5 1007.5 0.0
16/07:30pm 9.0 3.7 3.2 67 2.5 WNW 20 32 11 17 1007.2 1007.2 0.0
16/07:00pm 9.2 3.2 3.6 68 2.4 WNW 24 30 13 16 1006.9 1006.9 0.0
16/06:30pm 9.6 4.1 4.0 68 2.5 WNW 22 33 12 18 1006.6 1006.6 0.0
16/06:00pm 10.0 3.8 4.2 67 2.6 WNW 26 35 14 19 1005.9 1005.9 0.0
16/05:30pm 10.5 2.9 4.0 64 2.9 WNW 33 43 18 23 1005.5 1005.5 0.0
16/05:00pm 11.3 3.7 3.8 60 3.3 WNW 33 43 18 23 1005.2 1005.2 0.0
16/04:30pm 12.0 3.6 3.8 57 3.7 WNW 37 50 20 27 1004.8 1004.8 0.0
16/04:00pm 12.7 6.0 3.9 55 4.0 WNW 28 41 15 22 1004.9 1004.9 0.0
16/03:30pm 13.1 7.0 4.8 57 3.8 NW 26 39 14 21 1004.6 1004.6 0.0
16/03:00pm 13.6 7.4 4.5 54 4.2 WNW 26 41 14 22 1004.3 1004.3 0.0
16/02:33pm 13.7 6.4 4.3 53 4.3 WNW 32 50 17 27 1003.9 1003.9 0.0
16/02:30pm 13.1 5.6 4.3 55 4.0 WNW 33 50 18 27 1003.8 1003.8 0.0
16/02:00pm 13.7 6.3 4.0 52 4.4 WNW 32 50 17 27 1003.5 1003.5 0.0
16/01:54pm 13.8 7.2 4.1 52 4.4 WNW 28 46 15 25 1003.3 1003.3 0.0
16/01:30pm 14.0 7.0 4.3 52 4.5 W 30 39 16 21 1003.2 1003.2 0.0
16/01:01pm 14.0 7.4 4.0 51 4.6 W 28 46 15 25 1003.2 1003.2 0.0
16/01:00pm 13.9 6.8 3.7 50 4.6 W 30 46 16 25 1003.2 1003.2 0.0
16/12:38pm 14.2 7.5 3.4 48 4.9 W 28 46 15 25 1003.2 1003.2 0.0
16/12:30pm 13.6 6.0 2.8 48 4.8 W 32 46 17 25 1003.2 1003.2 0.0
16/12:00pm 13.7 6.0 3.2 49 4.7 W 33 48 18 26 1003.3 1003.3 0.0
16/11:30am 13.2 5.4 3.0 50 4.5 W 33 52 18 28 1003.4 1003.4 0.0
16/11:00am 13.3 6.8 4.5 55 4.1 W 28 41 15 22 1003.5 1003.5 0.0
16/10:30am 13.1 6.9 4.3 55 4.0 W 26 39 14 21 1003.4 1003.4 0.0
16/10:00am 11.9 6.4 3.9 58 3.6 WNW 22 43 12 23 1003.5 1003.5 0.0
16/09:30am 12.0 8.1 5.4 64 3.1 WNW 15 24 8 13 1003.6 1003.6 0.0
16/09:00am 11.2 6.5 5.3 67 2.7 NW 19 30 10 16 1003.5 1003.5 1.4
16/08:30am 10.3 5.7 5.5 72 2.2 NW 19 26 10 14 1003.2 1003.2 1.4
16/08:00am 9.4 5.1 5.2 75 1.9 NW 17 28 9 15 1003.1 1003.1 1.4
16/07:30am 8.7 4.3 4.9 77 1.7 NW 17 24 9 13 1002.6 1002.6 1.4
16/07:00am 8.4 3.1 4.8 78 1.6 NW 22 30 12 16 1001.8 1001.8 1.4
16/06:30am 8.8 2.7 4.8 76 1.8 WNW 26 37 14 20 1001.1 1001.1 1.4
16/06:00am 8.8 2.7 5.0 77 1.7 WNW 26 35 14 19 1000.6 1000.6 1.4
16/05:30am 8.8 2.7 4.8 76 1.8 WNW 26 37 14 20 1000.2 1000.2 1.4
16/05:00am 9.0 2.1 4.8 75 1.9 WNW 30 39 16 21 999.9 999.9 1.4
16/04:30am 9.3 2.9 5.3 76 1.8 W 28 39 15 21 999.4 999.4 1.4
16/04:00am 9.4 2.3 5.4 76 1.8 WNW 32 41 17 22 998.8 998.8 1.4
16/03:30am 9.5 1.5 5.7 77 1.7 WNW 37 56 20 30 998.3 998.3 1.4
16/03:00am 9.6 0.5 5.8 77 1.8 W 43 63 23 34 997.9 997.9 1.4
16/02:30am 9.7 0.5 6.2 79 1.6 WNW 44 65 24 35 997.6 997.6 1.4
16/02:05am 9.6 1.3 6.1 79 1.6 WNW 39 57 21 31 997.5 997.5 1.4
16/02:00am 9.6 1.3 6.0 78 1.7 WNW 39 56 21 30 997.4 997.4 1.4
16/01:34am 9.8 1.5 6.0 77 1.8 WNW 39 57 21 31 997.5 997.5 1.4
16/01:30am 9.9 1.2 6.1 77 1.8 WNW 41 57 22 31 997.4 997.4 1.4
16/01:01am 9.8 2.7 6.2 78 1.7 WNW 33 54 18 29 997.6 997.6 1.4
16/01:00am 9.8 2.7 6.2 78 1.7 WNW 33 46 18 25 997.7 997.7 1.4
16/12:46am 9.7 1.4 6.2 79 1.6 WNW 39 57 21 31 997.6 997.6 1.4
16/12:30am 9.9 2.0 6.3 78 1.7 WNW 37 54 20 29 997.9 997.9 1.4
16/12:05am 9.7 1.0 6.2 79 1.6 WNW 41 59 22 32 997.8 997.8 1.4
16/12:00am 9.7 0.7 6.2 79 1.6 WNW 43 59 23 32 997.9 997.9 1.4
 
Date/Time
EST
Temp
°C
App
Temp
°C
Dew
Point
°C
Rel
Hum
%
Delta-T
°C
Wind Press
QNH
hPa
Press
MSL
hPa
Rain since
9am
mm
Dir  Spd
km/h
Gust
km/h
Spd
kts
Gust
kts
15/11:30pm 9.6 1.2 5.6 76 1.8 WNW 39 57 21 31 997.8 997.8 1.4
15/11:00pm 9.2 0.7 5.2 76 1.8 WNW 39 57 21 31 997.7 997.7 1.4
15/10:35pm 9.2 0.0 5.4 77 1.7 WNW 43 61 23 33 997.6 997.6 1.4
15/10:30pm 9.2 -0.2 5.6 78 1.6 WNW 44 61 24 33 997.6 997.6 1.4
15/10:00pm 9.1 -0.2 6.0 81 1.4 WNW 44 61 24 33 997.6 997.6 1.4
15/09:37pm 9.5 0.4 6.0 79 1.6 WNW 43 61 23 33 996.9 996.9 1.2
15/09:30pm 9.4 0.7 6.1 80 1.5 WNW 41 56 22 30 996.6 996.6 1.2
15/09:11pm 9.0 -0.1 5.7 80 1.5 WNW 43 61 23 33 996.8 996.8 1.2
15/09:00pm 8.9 -0.3 5.6 80 1.5 WNW 43 57 23 31 996.9 996.9 1.2
15/08:30pm 8.2 1.0 5.1 81 1.4 WNW 32 54 17 29 997.2 997.2 1.2
15/08:26pm 8.2 1.8 5.3 82 1.3 WNW 28 46 15 25 997.2 997.2 1.2
15/08:00pm 7.4 0.0 5.0 85 1.1 WNW 33 50 18 27 997.3 997.3 1.2
15/07:30pm 7.1 -0.8 4.6 84 1.1 WNW 35 50 19 27 997.2 997.2 1.2
15/07:14pm 7.3 -0.2 4.4 82 1.3 WNW 33 52 18 28 997.2 997.2 1.0
15/07:00pm 7.9 -0.4 4.3 78 1.6 WNW 37 52 20 28 997.4 997.4 1.0
15/06:58pm 8.0 -0.7 4.2 77 1.7 WNW 39 52 21 28 997.5 997.5 1.0
15/06:30pm 9.0 0.2 3.8 70 2.3 W 39 57 21 31 997.1 997.1 1.0
15/06:28pm 9.2 0.8 3.8 69 2.4 W 37 57 20 31 997.1 997.1 1.0
15/06:27pm 9.2 1.2 4.0 70 2.3 W 35 54 19 29 997.3 997.3 1.0
15/06:00pm 9.6 2.6 4.2 69 2.4 WNW 30 39 16 21 996.8 996.8 1.0
15/05:31pm 10.4 2.2 2.5 58 3.4 WNW 35 54 19 29 996.6 996.6 1.0
15/05:30pm 10.4 1.8 2.5 58 3.4 WNW 37 54 20 29 996.6 996.6 1.0
15/05:00pm 11.1 2.6 3.2 58 3.5 W 37 56 20 30 996.0 996.0 1.0
15/04:30pm 11.3 2.3 4.5 63 3.1 WNW 41 59 22 32 995.6 995.6 1.0
15/04:02pm 11.6 1.7 4.8 63 3.1 WNW 46 65 25 35 995.0 995.0 1.0
15/04:00pm 11.6 1.3 4.6 62 3.2 WNW 48 65 26 35 995.0 995.0 1.0
15/03:30pm 12.2 1.9 2.9 53 4.1 WNW 46 69 25 37 994.6 994.6 1.0
15/03:00pm 12.3 1.5 4.3 58 3.7 WNW 50 78 27 42 994.5 994.5 1.0
15/02:30pm 12.3 1.2 4.3 58 3.6 WNW 52 82 28 44 994.0 994.0 1.0
15/02:00pm 12.3 1.0 5.5 63 3.2 WNW 54 80 29 43 993.8 993.8 1.0
15/01:30pm 12.8 2.4 5.9 63 3.3 WNW 50 72 27 39 993.6 993.6 1.0
15/01:00pm 12.4 0.6 5.8 64 3.1 WNW 57 89 31 48 993.2 993.2 1.0
15/12:30pm 12.8 1.4 6.6 66 3.0 WNW 56 74 30 40 993.2 993.2 1.0
15/12:00pm 12.8 2.5 6.4 65 3.1 WNW 50 83 27 45 993.4 993.4 0.8
15/11:30am 10.9 1.7 6.3 73 2.2 WNW 44 72 24 39 994.1 994.1 0.8
15/11:00am 11.9 1.3 6.8 71 2.5 WNW 52 80 28 43 993.7 993.7 0.8
15/10:30am 12.2 0.6 6.5 68 2.7 NW 57 91 31 49 993.4 993.4 0.6
15/10:23am 12.4 1.4 6.7 68 2.7 NW 54 76 29 41 993.6 993.6 0.6
15/10:22am 12.6 1.9 6.6 67 2.9 NW 52 76 28 41 993.5 993.5 0.6
15/10:14am 12.0 4.5 7.9 76 2.0 NW 37 76 20 41 993.6 993.6 0.6
15/10:00am 10.2 3.4 7.1 81 1.5 NW 32 48 17 26 994.2 994.2 0.6
15/09:30am 9.5 -1.2 6.4 81 1.4 WNW 52 89 28 48 994.8 994.8 0.6
15/09:22am 10.6 1.4 6.4 75 2.0 WNW 44 89 24 48 994.9 994.9 0.4
15/09:00am 11.3 3.6 7.0 75 2.1 NW 37 59 20 32 993.7 993.7 4.4
15/08:36am 10.7 1.8 7.0 78 1.8 WNW 43 63 23 34 993.7 993.7 4.4
15/08:30am 10.6 1.8 7.3 80 1.6 NW 43 57 23 31 993.6 993.6 4.4
15/08:00am 10.4 1.7 8.3 87 1.0 NW 44 69 24 37 993.6 993.6 4.0
15/07:55am 10.4 1.2 8.2 86 1.1 WNW 46 69 25 37 993.6 993.6 4.0
15/07:54am 10.3 1.1 8.1 86 1.1 WNW 46 63 25 34 993.8 993.8 4.0
15/07:42am 10.4 2.8 7.5 82 1.4 WNW 37 70 20 38 994.0 994.0 3.4
15/07:40am 10.7 2.8 7.8 82 1.4 WNW 39 59 21 32 994.1 994.1 3.4

Other Formats:

Comma delimited format used in spreadsheet applications
http://www.bom.gov.au/fwo/IDT60801/IDT60801.94983.axf

JavaScript Object Notation format (JSON) in row-major order
http://www.bom.gov.au/fwo/IDT60801/IDT60801.94983.json